Amoy Dream — VRHD5 — position and weather

sailwx.info

Track history (hours):
 
Tides and Currents Weather Stations Pressure Air Temp Water Temp Dewpoint Dewpoint Depression Visibility Wind Speed Wind Dir Waves Ship Positions

Amoy Dream

Last reported at 2017-Jul-16 13:44 UTC. Time now 2017-Jul-25 12:43 UTC.
Position N 30°43' E 123°15'.
Warning: this ship's position is 8 days out of date.

Length 190 m; draft 6.6 m.

Type: Cargo ship. MMSI: 477826600.

Date/timePositionNaut miles runAvg speedWind from/ knotsBaromVisibWave heightAir tempDewpointWater temp
2017-Jul-16 13:44N 30°43' E 123°15'1612.6
2017-Jul-16 12:27N 30°50' E 122°58'713.2
2017-Jul-16 11:57N 30°53' E 122°51'613.6
2017-Jul-16 11:30N 30°55' E 122°44'613.4
2017-Jul-16 11:00N 30°58' E 122°38'713.3
2017-Jul-16 10:30N 30°59' E 122°30'713.4
2017-Jul-16 10:00N 31°01' E 122°22'612.9
2017-Jul-16 09:30N 31°03' E 122°15'510.9
2017-Jul-16 09:00N 31°03' E 122°09'612.2
2017-Jul-16 08:30N 31°05' E 122°02'611.3
2017-Jul-16 08:00N 31°07' E 121°56'611.2
2017-Jul-16 07:30N 31°11' E 121°51'611.4
2017-Jul-16 07:00N 31°15' E 121°46'611.1
2017-Jul-16 06:30N 31°19' E 121°42'510.7
2017-Jul-16 06:00N 31°22' E 121°37'611.4
2017-Jul-16 05:30N 31°25' E 121°31'510.6
2017-Jul-16 05:00N 31°29' E 121°27'612.1
2017-Jul-16 04:30N 31°32' E 121°21'713.9
2017-Jul-16 04:01N 31°37' E 121°15'714.7
2017-Jul-16 03:30N 31°42' E 121°09'714.4
2017-Jul-16 03:00N 31°46' E 121°02'812.4
2017-Jul-16 02:21N 31°51' E 120°54'1911.2
2017-Jul-16 00:37N 32°01' E 120°34'213.9
2017-Jul-16 00:29N 32°01' E 120°32'4 7.9
2017-Jul-15 23:56N 31°60' E 120°27'  
2017-Jul-11 03:16N 31°58' E 120°24'1 3.0
2017-Jul-11 02:47N 31°58' E 120°26'2 7.3
2017-Jul-11 02:29N 31°60' E 120°27'3 5.7
2017-Jul-11 01:59N 32°02' E 120°29'23 7.8
2017-Jul-10 23:04N 31°52' E 120°54'3 9.2
2017-Jul-10 22:47N 31°50' E 120°55'3 8.7
2017-Jul-10 22:24N 31°47' E 120°57'4 8.2
2017-Jul-10 21:57N 31°47' E 121°01'4 9.6
2017-Jul-10 21:30N 31°45' E 121°06'510.4
2017-Jul-10 21:01N 31°41' E 121°10'611.6
2017-Jul-10 20:30N 31°37' E 121°16'611.8
2017-Jul-10 20:00N 31°33' E 121°20'611.6
2017-Jul-10 19:30N 31°30' E 121°26'510.7
2017-Jul-10 19:01N 31°26' E 121°30'4 8.5
2017-Jul-10 18:30N 31°24' E 121°34'5 9.3
2017-Jul-10 18:00N 31°21' E 121°39'5 9.7
2017-Jul-10 17:29N 31°19' E 121°44'611.5
2017-Jul-10 17:00N 31°17' E 121°50'612.5
2017-Jul-10 16:30N 31°15' E 121°57'612.2
2017-Jul-10 16:00N 31°14' E 122°04'612.2
2017-Jul-10 15:30N 31°11' E 122°10'612.6
2017-Jul-10 15:00N 31°07' E 122°16'611.5
2017-Jul-10 14:30N 31°06' E 122°23'510.0
2017-Jul-10 14:00N 31°07' E 122°29'5 9.5
2017-Jul-10 13:30N 31°07' E 122°34'2 4.3
2017-Jul-10 13:00N 31°09' E 122°36'0 0.1
2017-Jul-10 11:07N 31°09' E 122°36'0 0.0
2017-Jul-10 10:49N 31°09' E 122°36'0 0.0
2017-Jul-10 10:28N 31°09' E 122°36'0 0.0
2017-Jul-10 08:52N 31°09' E 122°36'0 0.0
2017-Jul-10 05:08N 31°09' E 122°36'0 1.2
2017-Jul-10 04:59N 31°09' E 122°36'2 4.8
2017-Jul-10 04:30N 31°10' E 122°39'510.4
2017-Jul-10 04:00N 31°06' E 122°43'  
Track history (hours):
 
Tides and Currents Weather Stations Pressure Air Temp Water Temp Dewpoint Dewpoint Depression Visibility Wind Speed Wind Dir Waves Ship Positions

Amoy Dream

Last reported at 2017-Jul-16 13:44 UTC. Time now 2017-Jul-25 12:43 UTC.
Position N 30°43' E 123°15'.
Warning: this ship's position is 8 days out of date.

Length 190 m; draft 6.6 m.

Type: Cargo ship. MMSI: 477826600.

Date/timePositionNaut miles runAvg speedWind from/ knotsBaromVisibWave heightAir tempDewpointWater temp
2017-Jul-16 13:44N 30°43' E 123°15'1612.6
2017-Jul-16 12:27N 30°50' E 122°58'713.2
2017-Jul-16 11:57N 30°53' E 122°51'613.6
2017-Jul-16 11:30N 30°55' E 122°44'613.4
2017-Jul-16 11:00N 30°58' E 122°38'713.3
2017-Jul-16 10:30N 30°59' E 122°30'713.4
2017-Jul-16 10:00N 31°01' E 122°22'612.9
2017-Jul-16 09:30N 31°03' E 122°15'510.9
2017-Jul-16 09:00N 31°03' E 122°09'612.2
2017-Jul-16 08:30N 31°05' E 122°02'611.3
2017-Jul-16 08:00N 31°07' E 121°56'611.2
2017-Jul-16 07:30N 31°11' E 121°51'611.4
2017-Jul-16 07:00N 31°15' E 121°46'611.1
2017-Jul-16 06:30N 31°19' E 121°42'510.7
2017-Jul-16 06:00N 31°22' E 121°37'611.4
2017-Jul-16 05:30N 31°25' E 121°31'510.6
2017-Jul-16 05:00N 31°29' E 121°27'612.1
2017-Jul-16 04:30N 31°32' E 121°21'713.9
2017-Jul-16 04:01N 31°37' E 121°15'714.7
2017-Jul-16 03:30N 31°42' E 121°09'714.4
2017-Jul-16 03:00N 31°46' E 121°02'812.4
2017-Jul-16 02:21N 31°51' E 120°54'1911.2
2017-Jul-16 00:37N 32°01' E 120°34'213.9
2017-Jul-16 00:29N 32°01' E 120°32'4 7.9
2017-Jul-15 23:56N 31°60' E 120°27'  
2017-Jul-11 03:16N 31°58' E 120°24'1 3.0
2017-Jul-11 02:47N 31°58' E 120°26'2 7.3
2017-Jul-11 02:29N 31°60' E 120°27'3 5.7
2017-Jul-11 01:59N 32°02' E 120°29'23 7.8
2017-Jul-10 23:04N 31°52' E 120°54'3 9.2
2017-Jul-10 22:47N 31°50' E 120°55'3 8.7
2017-Jul-10 22:24N 31°47' E 120°57'4 8.2
2017-Jul-10 21:57N 31°47' E 121°01'4 9.6
2017-Jul-10 21:30N 31°45' E 121°06'510.4
2017-Jul-10 21:01N 31°41' E 121°10'611.6
2017-Jul-10 20:30N 31°37' E 121°16'611.8
2017-Jul-10 20:00N 31°33' E 121°20'611.6
2017-Jul-10 19:30N 31°30' E 121°26'510.7
2017-Jul-10 19:01N 31°26' E 121°30'4 8.5
2017-Jul-10 18:30N 31°24' E 121°34'5 9.3
2017-Jul-10 18:00N 31°21' E 121°39'5 9.7
2017-Jul-10 17:29N 31°19' E 121°44'611.5
2017-Jul-10 17:00N 31°17' E 121°50'612.5
2017-Jul-10 16:30N 31°15' E 121°57'612.2
2017-Jul-10 16:00N 31°14' E 122°04'612.2
2017-Jul-10 15:30N 31°11' E 122°10'612.6
2017-Jul-10 15:00N 31°07' E 122°16'611.5
2017-Jul-10 14:30N 31°06' E 122°23'510.0
2017-Jul-10 14:00N 31°07' E 122°29'5 9.5
2017-Jul-10 13:30N 31°07' E 122°34'2 4.3
2017-Jul-10 13:00N 31°09' E 122°36'0 0.1
2017-Jul-10 11:07N 31°09' E 122°36'0 0.0
2017-Jul-10 10:49N 31°09' E 122°36'0 0.0
2017-Jul-10 10:28N 31°09' E 122°36'0 0.0
2017-Jul-10 08:52N 31°09' E 122°36'0 0.0
2017-Jul-10 05:08N 31°09' E 122°36'0 1.2
2017-Jul-10 04:59N 31°09' E 122°36'2 4.8
2017-Jul-10 04:30N 31°10' E 122°39'510.4
2017-Jul-10 04:00N 31°06' E 122°43'  

Dump ship's entire track history